createdAt,value
2018-06-27T00:01:03.619Z,100239.86
2018-06-27T00:02:39.231Z,100236.60
2018-06-27T00:04:14.806Z,100241.83
2018-06-27T00:05:50.467Z,100241.81
2018-06-27T00:07:26.078Z,100244.63
2018-06-27T00:09:01.640Z,100248.93
2018-06-27T00:10:37.232Z,100249.63
2018-06-27T00:12:12.832Z,100248.67
2018-06-27T00:13:48.382Z,100246.54
2018-06-27T00:15:24.012Z,100247.43
2018-06-27T00:16:59.602Z,100247.14
2018-06-27T00:18:35.402Z,100246.53
2018-06-27T00:20:10.972Z,100246.09
2018-06-27T00:21:46.578Z,100249.52
2018-06-27T00:23:22.186Z,100247.08
2018-06-27T00:24:57.791Z,100239.23
2018-06-27T00:26:33.400Z,100255.41
2018-06-27T00:28:08.967Z,100259.58
2018-06-27T00:29:44.510Z,100255.70
2018-06-27T00:31:20.100Z,100256.30
2018-06-27T00:32:55.658Z,100257.52
2018-06-27T00:34:31.231Z,100253.19
2018-06-27T00:36:06.755Z,100255.84
2018-06-27T00:37:42.392Z,100256.39
2018-06-27T00:39:17.944Z,100259.78
2018-06-27T00:40:53.475Z,100255.58
2018-06-27T00:42:29.031Z,100258.79
2018-06-27T00:44:04.678Z,100264.18
2018-06-27T00:45:40.244Z,100268.35
2018-06-27T00:47:15.813Z,100266.40
2018-06-27T00:48:51.368Z,100265.44
2018-06-27T00:50:26.968Z,100265.15
2018-06-27T00:52:02.561Z,100266.66
2018-06-27T00:53:43.527Z,100268.17
2018-06-27T00:55:19.104Z,100267.14
2018-06-27T00:56:54.795Z,100266.88
2018-06-27T00:58:30.395Z,100263.38
2018-06-27T01:00:05.980Z,100263.13
2018-06-27T01:01:41.544Z,100263.38
2018-06-27T01:03:17.202Z,100263.67
2018-06-27T01:04:52.782Z,100254.86
2018-06-27T01:06:28.373Z,100254.97
2018-06-27T01:08:03.967Z,100257.63
2018-06-27T01:09:39.530Z,100257.48
2018-06-27T01:11:15.157Z,100262.23
2018-06-27T01:12:51.082Z,100258.05
2018-06-27T01:14:26.671Z,100252.92
2018-06-27T01:16:02.263Z,100254.98
2018-06-27T01:17:37.824Z,100244.73
2018-06-27T01:19:13.445Z,100252.36
2018-06-27T01:20:49.008Z,100253.70
2018-06-27T01:22:24.588Z,100256.64
2018-06-27T01:24:00.152Z,100254.97
2018-06-27T01:25:35.751Z,100255.59
2018-06-27T01:27:11.320Z,100253.53
2018-06-27T01:28:46.937Z,100256.09
2018-06-27T01:30:22.519Z,100257.33
2018-06-27T01:31:58.129Z,100260.71
2018-06-27T01:33:33.727Z,100260.94
2018-06-27T01:35:09.471Z,100256.65
2018-06-27T01:36:45.088Z,100257.98
2018-06-27T01:38:20.706Z,100251.86
2018-06-27T01:39:56.274Z,100254.57
2018-06-27T01:41:31.866Z,100252.16
2018-06-27T01:43:07.639Z,100250.95
2018-06-27T01:44:43.268Z,100253.50
2018-06-27T01:46:18.956Z,100256.17
2018-06-27T01:47:54.556Z,100250.16
2018-06-27T01:49:30.123Z,100254.37
2018-06-27T01:51:05.723Z,100256.93
2018-06-27T01:52:41.298Z,100258.73
2018-06-27T01:54:16.898Z,100258.40
2018-06-27T01:55:52.541Z,100262.85
2018-06-27T01:57:28.091Z,100258.75
2018-06-27T01:59:03.652Z,100260.55
2018-06-27T02:00:39.283Z,100264.63
2018-06-27T02:02:14.842Z,100267.31
2018-06-27T02:03:50.425Z,100265.75
2018-06-27T02:05:25.983Z,100270.81
2018-06-27T02:07:01.596Z,100263.20
2018-06-27T02:08:37.170Z,100261.77
2018-06-27T02:10:12.723Z,100259.61
2018-06-27T02:11:48.319Z,100265.52
2018-06-27T02:13:23.924Z,100263.47
2018-06-27T02:14:59.686Z,100265.52
2018-06-27T02:16:35.348Z,100264.05
2018-06-27T02:18:10.973Z,100265.41
2018-06-27T02:19:46.537Z,100264.79
2018-06-27T02:21:22.098Z,100261.91
2018-06-27T02:23:05.429Z,100262.99
2018-06-27T02:24:40.999Z,100266.01
2018-06-27T02:26:16.568Z,100262.75
2018-06-27T02:27:52.130Z,100257.94
2018-06-27T02:29:27.734Z,100266.73
2018-06-27T02:31:03.344Z,100266.59
2018-06-27T02:32:38.926Z,100267.09
2018-06-27T02:34:14.519Z,100266.60
2018-06-27T02:35:50.135Z,100265.75
2018-06-27T02:37:25.727Z,100265.89
2018-06-27T02:39:02.477Z,100264.09
2018-06-27T02:40:38.080Z,100270.95
2018-06-27T02:42:13.708Z,100274.31
2018-06-27T02:43:49.344Z,100275.86
2018-06-27T02:45:24.934Z,100278.88
2018-06-27T02:47:00.529Z,100276.23
2018-06-27T02:48:36.135Z,100275.73
2018-06-27T02:50:11.721Z,100280.19
2018-06-27T02:51:47.294Z,100283.33
2018-06-27T02:53:22.893Z,100280.44
2018-06-27T02:54:58.463Z,100280.06
2018-06-27T02:56:34.027Z,100273.09
2018-06-27T02:58:09.597Z,100283.34
2018-06-27T02:59:45.255Z,100277.30
2018-06-27T03:01:20.829Z,100281.53
2018-06-27T03:02:56.435Z,100284.28
2018-06-27T03:04:32.045Z,100284.28
2018-06-27T03:06:07.632Z,100297.05
2018-06-27T03:07:43.630Z,100292.22
2018-06-27T03:09:19.242Z,100290.42
2018-06-27T03:10:54.810Z,100296.06
2018-06-27T03:12:30.418Z,100294.63
2018-06-27T03:14:06.082Z,100295.24
2018-06-27T03:15:42.244Z,100295.84
2018-06-27T03:17:18.220Z,100298.49
2018-06-27T03:18:56.415Z,100300.16
2018-06-27T03:20:31.990Z,100298.23
2018-06-27T03:22:07.603Z,100295.34
2018-06-27T03:23:43.174Z,100293.05
2018-06-27T03:25:18.759Z,100293.91
2018-06-27T03:26:54.367Z,100296.92
2018-06-27T03:28:29.940Z,100302.09
2018-06-27T03:30:05.758Z,100304.73
2018-06-27T03:31:41.327Z,100305.70
2018-06-27T03:33:16.996Z,100306.30
2018-06-27T03:34:52.595Z,100304.38
2018-06-27T03:36:28.197Z,100303.03
2018-06-27T03:38:03.791Z,100303.30
2018-06-27T03:39:39.380Z,100301.36
2018-06-27T03:41:14.980Z,100297.86
2018-06-27T03:42:50.604Z,100305.78
2018-06-27T03:44:26.171Z,100297.51
2018-06-27T03:46:01.743Z,100304.84
2018-06-27T03:47:37.408Z,100311.56
2018-06-27T03:49:12.957Z,100305.95
2018-06-27T03:50:48.528Z,100310.14
2018-06-27T03:52:24.096Z,100306.18
2018-06-27T03:54:00.344Z,100314.59
2018-06-27T03:55:35.944Z,100314.00
2018-06-27T03:57:11.602Z,100314.98
2018-06-27T03:58:47.159Z,100313.17
2018-06-27T04:00:22.767Z,100312.69
2018-06-27T04:01:58.334Z,100321.24
2018-06-27T04:03:33.934Z,100320.88
2018-06-27T04:05:09.583Z,100276.11
2018-06-27T04:06:45.188Z,100327.73
2018-06-27T04:08:20.788Z,100334.70
2018-06-27T04:09:56.348Z,100326.30
2018-06-27T04:11:31.994Z,100326.06
2018-06-27T04:13:07.711Z,100329.42
2018-06-27T04:14:43.159Z,100331.83
2018-06-27T04:16:18.719Z,100325.89
2018-06-27T04:17:54.651Z,100321.80
2018-06-27T04:19:30.298Z,100316.69
2018-06-27T04:21:05.896Z,100309.44
2018-06-27T04:22:41.880Z,100311.80
2018-06-27T04:24:25.846Z,100306.16
2018-06-27T04:26:01.521Z,100311.05
2018-06-27T04:27:37.174Z,100312.45
2018-06-27T04:29:12.771Z,100309.34
2018-06-27T04:30:48.385Z,100318.03
2018-06-27T04:32:24.634Z,100320.48
2018-06-27T04:34:00.195Z,100319.34
2018-06-27T04:35:35.922Z,100331.33
2018-06-27T04:37:11.589Z,100333.78
2018-06-27T04:38:47.184Z,100339.84
2018-06-27T04:40:22.771Z,100340.25
2018-06-27T04:41:58.343Z,100340.22
2018-06-27T04:43:33.907Z,100339.86
2018-06-27T04:45:09.815Z,100340.30
2018-06-27T04:46:45.388Z,100335.89
2018-06-27T04:48:20.979Z,100330.72
2018-06-27T04:49:56.613Z,100330.49
2018-06-27T04:51:38.375Z,100332.03
2018-06-27T04:53:14.945Z,100332.23
2018-06-27T04:54:59.772Z,100330.84
2018-06-27T04:56:35.301Z,100334.85
2018-06-27T04:58:13.083Z,100327.03
2018-06-27T04:59:51.525Z,100337.95
2018-06-27T05:01:31.971Z,100339.09
2018-06-27T05:03:08.252Z,100346.19
2018-06-27T05:04:44.587Z,100340.25
2018-06-27T05:06:21.311Z,100339.47
2018-06-27T05:07:57.223Z,100342.21
2018-06-27T05:09:32.897Z,100336.70
2018-06-27T05:11:08.550Z,100340.74
2018-06-27T05:12:44.188Z,100344.33
2018-06-27T05:14:29.976Z,100351.12
2018-06-27T05:16:06.323Z,100355.67
2018-06-27T05:17:43.450Z,100353.21
2018-06-27T05:19:22.713Z,100351.48
2018-06-27T05:21:01.894Z,100358.11
2018-06-27T05:22:38.481Z,100358.76
2018-06-27T05:24:14.393Z,100348.84
2018-06-27T05:25:51.332Z,100357.62
2018-06-27T05:27:27.047Z,100358.68
2018-06-27T05:29:02.696Z,100367.48
2018-06-27T05:30:38.323Z,100365.44
2018-06-27T05:32:13.917Z,100368.91
2018-06-27T05:33:51.788Z,100366.49
2018-06-27T05:35:28.444Z,100367.34
2018-06-27T05:37:04.087Z,100376.62
2018-06-27T05:38:39.916Z,100372.66
2018-06-27T05:40:15.770Z,100372.27
2018-06-27T05:41:51.455Z,100372.19
2018-06-27T05:43:27.127Z,100372.78
2018-06-27T05:45:02.747Z,100372.49
2018-06-27T05:46:38.343Z,100379.39
2018-06-27T05:48:13.926Z,100378.63
2018-06-27T05:49:55.643Z,100377.84
2018-06-27T05:51:31.295Z,100379.50
2018-06-27T05:53:06.892Z,100378.74
2018-06-27T05:54:42.503Z,100379.25
2018-06-27T05:56:18.122Z,100382.89
2018-06-27T05:57:54.040Z,100383.06
2018-06-27T05:59:29.626Z,100382.27
2018-06-27T06:01:05.262Z,100392.47
2018-06-27T06:02:44.600Z,100392.12
2018-06-27T06:04:20.247Z,100388.71
2018-06-27T06:05:55.826Z,100392.78
2018-06-27T06:07:32.815Z,100381.77
2018-06-27T06:09:10.998Z,100387.75
2018-06-27T06:11:06.252Z,100390.86
2018-06-27T06:12:42.221Z,100392.07
2018-06-27T06:14:18.374Z,100387.41
2018-06-27T06:15:54.004Z,100392.40
2018-06-27T06:17:29.599Z,100395.09
2018-06-27T06:19:05.329Z,100398.80
2018-06-27T06:20:40.919Z,100396.08
2018-06-27T06:22:16.545Z,100396.15
2018-06-27T06:23:52.226Z,100397.61
2018-06-27T06:25:27.905Z,100399.70
2018-06-27T06:27:03.590Z,100404.80
2018-06-27T06:28:39.208Z,100407.03
2018-06-27T06:30:14.871Z,100403.20
2018-06-27T06:31:50.500Z,100406.42
2018-06-27T06:33:26.063Z,100405.42
2018-06-27T06:35:01.677Z,100401.36
2018-06-27T06:36:37.343Z,100401.84
2018-06-27T06:38:12.961Z,100407.49
2018-06-27T06:39:48.520Z,100411.73
2018-06-27T06:41:24.093Z,100415.02
2018-06-27T06:42:59.707Z,100402.74
2018-06-27T06:44:35.327Z,100401.55
2018-06-27T06:46:11.012Z,100407.63
2018-06-27T06:47:46.646Z,100408.38
2018-06-27T06:49:23.678Z,100402.00
2018-06-27T06:50:59.808Z,100402.25
2018-06-27T06:52:35.442Z,100407.86
2018-06-27T06:54:11.055Z,100409.19
2018-06-27T06:55:46.634Z,100410.09
2018-06-27T06:57:22.697Z,100415.02
2018-06-27T06:58:58.375Z,100417.67
2018-06-27T07:00:34.031Z,100413.53
2018-06-27T07:02:09.643Z,100419.13
2018-06-27T07:03:45.248Z,100413.52
2018-06-27T07:05:21.275Z,100419.55
2018-06-27T07:06:56.941Z,100419.66
2018-06-27T07:08:32.586Z,100424.95
2018-06-27T07:10:08.397Z,100425.76
2018-06-27T07:11:44.030Z,100425.38
2018-06-27T07:13:19.643Z,100417.39
2018-06-27T07:14:55.293Z,100423.97
2018-06-27T07:16:30.921Z,100431.25
2018-06-27T07:18:06.523Z,100431.48
2018-06-27T07:19:42.114Z,100427.47
2018-06-27T07:21:18.063Z,100426.42
2018-06-27T07:22:53.683Z,100424.19
2018-06-27T07:24:30.791Z,100425.72
2018-06-27T07:26:06.638Z,100431.05
2018-06-27T07:27:42.274Z,100426.92
2018-06-27T07:29:17.953Z,100427.95
2018-06-27T07:30:53.566Z,100417.20
2018-06-27T07:32:29.638Z,100422.75
2018-06-27T07:34:05.863Z,100416.66
2018-06-27T07:35:41.500Z,100418.94
2018-06-27T07:37:17.471Z,100419.45
2018-06-27T07:38:53.240Z,100417.02
2018-06-27T07:40:28.835Z,100415.27
2018-06-27T07:42:04.996Z,100418.69
2018-06-27T07:43:42.735Z,100418.64
2018-06-27T07:45:18.415Z,100410.24
2018-06-27T07:46:53.994Z,100409.17
2018-06-27T07:48:29.587Z,100421.05
2018-06-27T07:50:05.528Z,100411.49
2018-06-27T07:51:41.132Z,100413.52
2018-06-27T07:53:17.111Z,100408.87
2018-06-27T07:54:52.745Z,100418.52
2018-06-27T07:56:28.427Z,100414.00
2018-06-27T07:58:04.066Z,100414.89
2018-06-27T07:59:39.719Z,100411.73
2018-06-27T08:01:15.414Z,100413.98
2018-06-27T08:02:51.102Z,100416.80
2018-06-27T08:04:26.673Z,100422.64
2018-06-27T08:06:02.248Z,100418.86
2018-06-27T08:07:38.176Z,100415.28
2018-06-27T08:09:13.784Z,100421.36
2018-06-27T08:10:49.450Z,100421.06
2018-06-27T08:12:25.038Z,100420.13
2018-06-27T08:14:00.645Z,100414.49
2018-06-27T08:15:36.233Z,100414.44
2018-06-27T08:17:11.880Z,100413.25
2018-06-27T08:18:48.346Z,100410.33
2018-06-27T08:20:23.947Z,100416.70
2018-06-27T08:21:59.524Z,100411.19
2018-06-27T08:23:35.172Z,100409.00
2018-06-27T08:25:10.752Z,100408.17
2018-06-27T08:26:46.339Z,100410.19
2018-06-27T08:28:23.363Z,100416.10
2018-06-27T08:29:58.992Z,100408.46
2018-06-27T08:31:34.584Z,100407.30
2018-06-27T08:33:10.179Z,100400.98
2018-06-27T08:34:45.779Z,100403.12
2018-06-27T08:36:21.359Z,100400.98
2018-06-27T08:37:56.972Z,100404.74
2018-06-27T08:39:32.554Z,100403.73
2018-06-27T08:41:08.172Z,100399.22
2018-06-27T08:42:43.808Z,100398.44
2018-06-27T08:44:19.460Z,100398.25
2018-06-27T08:45:55.259Z,100397.00
2018-06-27T08:47:30.899Z,100393.44
2018-06-27T08:49:06.910Z,100399.89
2018-06-27T08:50:42.496Z,100396.42
2018-06-27T08:52:18.135Z,100398.98
2018-06-27T08:53:53.750Z,100398.95
2018-06-27T08:55:29.324Z,100396.61
2018-06-27T08:57:05.306Z,100328.91
2018-06-27T08:58:40.914Z,100399.65
2018-06-27T09:00:16.592Z,100392.36
2018-06-27T09:01:52.461Z,100394.64
2018-06-27T09:03:29.247Z,100402.00
2018-06-27T09:05:04.904Z,100404.32
2018-06-27T09:06:40.547Z,100405.47
2018-06-27T09:08:16.140Z,100399.76
2018-06-27T09:09:51.790Z,100399.23
2018-06-27T09:11:27.396Z,100392.64
2018-06-27T09:13:03.025Z,100393.94
2018-06-27T09:14:38.687Z,100397.45
2018-06-27T09:16:14.285Z,100400.53
2018-06-27T09:17:49.851Z,100392.83
2018-06-27T09:19:25.452Z,100398.16
2018-06-27T09:21:01.460Z,100390.16
2018-06-27T09:22:37.105Z,100395.31
2018-06-27T09:24:12.725Z,100383.90
2018-06-27T09:25:48.333Z,100392.39
2018-06-27T09:27:23.977Z,100403.30
2018-06-27T09:28:59.568Z,100397.50
2018-06-27T09:30:35.186Z,100392.90
2018-06-27T09:32:10.761Z,100386.37
2018-06-27T09:33:46.372Z,100396.58
2018-06-27T09:35:21.991Z,100393.79
2018-06-27T09:36:57.549Z,100405.92
2018-06-27T09:38:33.181Z,100392.44
2018-06-27T09:40:08.788Z,100396.09
2018-06-27T09:41:44.412Z,100392.58
2018-06-27T09:43:20.032Z,100401.16
2018-06-27T09:44:55.758Z,100395.92
2018-06-27T09:46:31.410Z,100387.30
2018-06-27T09:48:07.042Z,100394.16
2018-06-27T09:49:43.214Z,100399.52
2018-06-27T09:51:19.127Z,100399.81
2018-06-27T09:52:54.755Z,100395.39
2018-06-27T09:54:30.374Z,100406.63
2018-06-27T09:56:06.446Z,100394.80
2018-06-27T09:57:42.099Z,100394.06
2018-06-27T09:59:17.747Z,100389.25
2018-06-27T10:00:53.750Z,100387.46
2018-06-27T10:02:29.322Z,100384.44
2018-06-27T10:04:05.016Z,100393.80
2018-06-27T10:05:40.735Z,100393.48
2018-06-27T10:07:17.247Z,100401.11
2018-06-27T10:08:53.142Z,100392.33
2018-06-27T10:10:29.087Z,100395.88
2018-06-27T10:12:07.588Z,100388.39
2018-06-27T10:13:43.257Z,100372.64
2018-06-27T10:15:18.894Z,100394.45
2018-06-27T10:16:55.754Z,100405.23
2018-06-27T10:18:31.584Z,100389.86
2018-06-27T10:20:08.296Z,100397.14
2018-06-27T10:21:49.454Z,100392.06
2018-06-27T10:23:25.630Z,100396.17
2018-06-27T10:25:01.722Z,100393.53
2018-06-27T10:26:37.360Z,100394.56
2018-06-27T10:28:12.983Z,100391.44
2018-06-27T10:29:50.677Z,100384.20
2018-06-27T10:31:26.380Z,100384.41
2018-06-27T10:33:02.017Z,100375.43
2018-06-27T10:34:37.634Z,100377.77
2018-06-27T10:36:13.249Z,100386.12
2018-06-27T10:37:48.895Z,100380.13
2018-06-27T10:39:24.774Z,100383.15
2018-06-27T10:41:01.007Z,100385.49
2018-06-27T10:42:36.632Z,100383.52
2018-06-27T10:44:12.206Z,100387.06
2018-06-27T10:45:48.323Z,100388.40
2018-06-27T10:47:24.798Z,100380.55
2018-06-27T10:49:00.577Z,100377.80
2018-06-27T10:50:36.166Z,100375.91
2018-06-27T10:52:11.776Z,100370.27
2018-06-27T10:53:47.582Z,100379.96
2018-06-27T10:55:24.639Z,100379.57
2018-06-27T10:57:00.237Z,100369.61
2018-06-27T10:58:35.816Z,100378.94
2018-06-27T11:00:11.835Z,100375.87
2018-06-27T11:01:47.625Z,100386.54
2018-06-27T11:03:23.215Z,100384.29
2018-06-27T11:04:58.804Z,100376.16
2018-06-27T11:06:34.505Z,100370.99
2018-06-27T11:08:10.969Z,100365.47
2018-06-27T11:09:48.137Z,100372.66
2018-06-27T11:11:25.321Z,100372.07
2018-06-27T11:13:00.920Z,100380.42
2018-06-27T11:14:37.476Z,100368.69
2018-06-27T11:16:14.036Z,100364.52
2018-06-27T11:17:50.399Z,100373.75
2018-06-27T11:19:26.123Z,100366.52
2018-06-27T11:21:01.715Z,100373.86
2018-06-27T11:22:37.407Z,100364.69
2018-06-27T11:24:13.283Z,100376.42
2018-06-27T11:25:48.904Z,100379.95
2018-06-27T11:27:24.576Z,100368.08
2018-06-27T11:29:04.641Z,100367.84
2018-06-27T11:30:41.813Z,100366.23
2018-06-27T11:32:17.614Z,100353.25
2018-06-27T11:33:59.163Z,100355.00
2018-06-27T11:35:34.797Z,100357.00
2018-06-27T11:37:16.673Z,100352.48
2018-06-27T11:38:57.581Z,100346.97
2018-06-27T11:40:34.019Z,100342.27
2018-06-27T11:42:13.930Z,100348.61
2018-06-27T11:43:49.555Z,100345.45
2018-06-27T11:45:25.270Z,100347.27
2018-06-27T11:47:02.499Z,100348.66
2018-06-27T11:48:39.178Z,100346.45
2018-06-27T11:50:18.248Z,100346.78
2018-06-27T11:51:53.887Z,100349.30
2018-06-27T11:53:31.153Z,100338.41
2018-06-27T11:55:13.312Z,100337.73
2018-06-27T11:56:49.102Z,100329.15
2018-06-27T11:58:25.976Z,100335.03
2018-06-27T12:00:02.499Z,100319.38
2018-06-27T12:01:38.139Z,100313.06
2018-06-27T12:03:13.768Z,100320.80
2018-06-27T12:04:53.292Z,100321.97
2018-06-27T12:06:31.908Z,100326.69
2018-06-27T12:08:08.619Z,100318.48
2018-06-27T12:09:44.236Z,100325.02
2018-06-27T12:11:21.005Z,100332.88
2018-06-27T12:12:59.105Z,100330.70
2018-06-27T12:14:36.067Z,100323.84
2018-06-27T12:16:12.360Z,100322.80
2018-06-27T12:17:49.038Z,100327.17
2018-06-27T12:19:27.671Z,100324.61
2018-06-27T12:21:04.040Z,100320.52
2018-06-27T12:22:40.935Z,100314.30
2018-06-27T12:24:16.535Z,100320.05
2018-06-27T12:25:54.929Z,100320.57
2018-06-27T12:27:31.188Z,100318.78
2018-06-27T12:29:07.497Z,100327.25
2018-06-27T12:30:43.480Z,100323.09
2018-06-27T12:32:20.179Z,100332.64
2018-06-27T12:33:56.255Z,100328.85
2018-06-27T12:35:32.095Z,100323.98
2018-06-27T12:37:08.011Z,100323.80
2018-06-27T12:38:45.367Z,100321.41
2018-06-27T12:40:25.709Z,100317.16
2018-06-27T12:42:05.279Z,100318.90
2018-06-27T12:43:41.646Z,100313.91
2018-06-27T12:45:18.774Z,100316.21
2018-06-27T12:46:54.559Z,100310.45
2018-06-27T12:48:30.309Z,100316.96
2018-06-27T12:50:11.843Z,100314.33
2018-06-27T12:51:48.087Z,100316.13
2018-06-27T12:53:28.509Z,100308.00
2018-06-27T12:55:07.832Z,100308.97
2018-06-27T12:57:00.364Z,100314.59
2018-06-27T12:58:38.467Z,100307.04
2018-06-27T13:00:14.968Z,100297.08
2018-06-27T13:01:51.925Z,100301.22
2018-06-27T13:03:30.192Z,100300.48
2018-06-27T13:05:25.633Z,100296.80
2018-06-27T13:07:05.032Z,100288.91
2018-06-27T13:08:42.426Z,100297.27
2018-06-27T13:10:19.383Z,100292.90
2018-06-27T13:11:56.161Z,100295.22
2018-06-27T13:13:31.835Z,100288.59
2018-06-27T13:15:07.874Z,100291.06
2018-06-27T13:16:43.467Z,100288.94
2018-06-27T13:18:19.732Z,100302.52
2018-06-27T13:19:55.390Z,100296.08
2018-06-27T13:21:31.004Z,100286.76
2018-06-27T13:23:07.229Z,100284.16
2018-06-27T13:24:42.844Z,100282.80
2018-06-27T13:26:18.462Z,100278.11
2018-06-27T13:27:55.037Z,100273.06
2018-06-27T13:29:30.711Z,100290.80
2018-06-27T13:31:06.298Z,100290.16
2018-06-27T13:32:41.935Z,100294.16
2018-06-27T13:34:17.591Z,100293.50
2018-06-27T13:35:53.213Z,100297.30
2018-06-27T13:37:28.938Z,100285.69
2018-06-27T13:39:06.589Z,100285.61
2018-06-27T13:40:42.207Z,100277.31
2018-06-27T13:42:18.875Z,100275.67
2018-06-27T13:43:55.664Z,100273.67
2018-06-27T13:45:33.726Z,100278.41
2018-06-27T13:47:12.323Z,100272.38
2018-06-27T13:48:51.567Z,100268.15
2018-06-27T13:50:29.169Z,100277.89
2018-06-27T13:52:06.214Z,100280.63
2018-06-27T13:53:42.119Z,100277.93
2018-06-27T13:55:18.935Z,100277.09
2018-06-27T13:56:58.532Z,100274.15
2018-06-27T13:58:41.888Z,100270.97
2018-06-27T14:00:17.499Z,100279.42
2018-06-27T14:01:56.297Z,100273.58
2018-06-27T14:03:35.640Z,100272.59
2018-06-27T14:05:15.082Z,100266.80
2018-06-27T14:06:53.077Z,100265.73
2018-06-27T14:08:29.994Z,100265.16
2018-06-27T14:10:08.669Z,100264.95
2018-06-27T14:11:45.134Z,100263.58
2018-06-27T14:13:21.835Z,100275.67
2018-06-27T14:14:57.472Z,100279.39
2018-06-27T14:16:33.134Z,100290.14
2018-06-27T14:18:08.911Z,100282.73
2018-06-27T14:19:44.595Z,100271.73
2018-06-27T14:21:20.196Z,100277.48
2018-06-27T14:22:55.840Z,100274.17
2018-06-27T14:24:31.422Z,100267.89
2018-06-27T14:26:07.141Z,100260.15
2018-06-27T14:27:44.363Z,100263.48
2018-06-27T14:29:20.317Z,100282.85
2018-06-27T14:30:56.157Z,100275.33
2018-06-27T14:32:31.855Z,100273.34
2018-06-27T14:34:07.493Z,100276.02
2018-06-27T14:35:44.167Z,100279.11
2018-06-27T14:37:20.540Z,100282.05
2018-06-27T14:38:56.207Z,100279.58
2018-06-27T14:40:31.857Z,100268.97
2018-06-27T14:42:07.508Z,100274.41
2018-06-27T14:43:43.133Z,100270.43
2018-06-27T14:45:18.818Z,100268.15
2018-06-27T14:46:55.561Z,100271.14
2018-06-27T14:48:32.280Z,100276.05
2018-06-27T14:50:09.319Z,100266.09
2018-06-27T14:51:44.948Z,100269.59
2018-06-27T14:53:20.592Z,100271.03
2018-06-27T14:54:56.218Z,100260.34
2018-06-27T14:56:31.920Z,100270.81
2018-06-27T14:58:07.589Z,100263.26
2018-06-27T14:59:44.183Z,100263.02
2018-06-27T15:01:19.723Z,100257.12
2018-06-27T15:02:55.359Z,100258.20
2018-06-27T15:04:33.496Z,100261.11
2018-06-27T15:06:09.503Z,100258.69
2018-06-27T15:07:45.177Z,100253.28
2018-06-27T15:09:20.916Z,100251.22
2018-06-27T15:10:58.330Z,100254.59
2018-06-27T15:12:33.968Z,100261.61
2018-06-27T15:14:09.979Z,100259.39
2018-06-27T15:15:46.122Z,100251.42
2018-06-27T15:17:21.794Z,100248.39
2018-06-27T15:18:57.506Z,100239.88
2018-06-27T15:20:33.533Z,100240.05
2018-06-27T15:22:09.200Z,100236.89
2018-06-27T15:23:44.983Z,100233.72
2018-06-27T15:25:20.515Z,100228.70
2018-06-27T15:26:56.194Z,100233.05
2018-06-27T15:28:31.795Z,100232.22
2018-06-27T15:30:07.819Z,100238.92
2018-06-27T15:31:43.480Z,100230.02
2018-06-27T15:33:19.321Z,100230.17
2018-06-27T15:34:54.925Z,100228.78
2018-06-27T15:36:30.545Z,100233.67
2018-06-27T15:38:06.223Z,100235.19
2018-06-27T15:39:41.867Z,100232.01
2018-06-27T15:41:17.515Z,100231.39
2018-06-27T15:42:53.141Z,100236.39
2018-06-27T15:44:29.397Z,100240.59
2018-06-27T15:46:05.050Z,100223.83
2018-06-27T15:47:40.729Z,100231.31
2018-06-27T15:49:17.149Z,100231.31
2018-06-27T15:50:53.691Z,100234.03
2018-06-27T15:52:29.923Z,100235.35
2018-06-27T15:54:06.677Z,100243.06
2018-06-27T15:55:42.949Z,100237.34
2018-06-27T15:57:20.230Z,100228.39
2018-06-27T15:58:55.897Z,100227.83
2018-06-27T16:00:31.534Z,100229.11
2018-06-27T16:02:07.178Z,100224.24
2018-06-27T16:03:42.890Z,100226.14
2018-06-27T16:05:19.527Z,100225.69
2018-06-27T16:06:55.199Z,100229.63
2018-06-27T16:08:30.833Z,100225.80
2018-06-27T16:10:06.951Z,100231.16
2018-06-27T16:11:42.568Z,100224.18
2018-06-27T16:13:18.111Z,100229.92
2018-06-27T16:14:53.717Z,100222.38
2018-06-27T16:16:29.730Z,100228.47
2018-06-27T16:18:06.363Z,100229.42
2018-06-27T16:19:42.180Z,100184.39
2018-06-27T16:21:17.793Z,100229.72
2018-06-27T16:22:53.407Z,100223.08
2018-06-27T16:24:29.039Z,100226.98
2018-06-27T16:26:04.685Z,100226.23
2018-06-27T16:27:40.268Z,100232.16
2018-06-27T16:29:16.077Z,100230.13
2018-06-27T16:30:55.048Z,100224.76
2018-06-27T16:32:32.246Z,100229.72
2018-06-27T16:34:07.873Z,100231.06
2018-06-27T16:35:43.483Z,100221.26
2018-06-27T16:37:19.087Z,100231.84
2018-06-27T16:38:54.711Z,100236.70
2018-06-27T16:40:30.352Z,100226.56
2018-06-27T16:42:06.247Z,100230.87
2018-06-27T16:43:42.417Z,100225.48
2018-06-27T16:45:18.085Z,100229.88
2018-06-27T16:46:53.691Z,100227.11
2018-06-27T16:48:29.430Z,100216.07
2018-06-27T16:50:06.409Z,100215.59
2018-06-27T16:51:42.144Z,100208.97
2018-06-27T16:53:18.668Z,100221.89
2018-06-27T16:54:54.495Z,100212.81
2018-06-27T16:56:30.722Z,100228.96
2018-06-27T16:58:06.389Z,100219.12
2018-06-27T16:59:42.024Z,100224.28
2018-06-27T17:01:18.155Z,100230.97
2018-06-27T17:02:53.655Z,100220.86
2018-06-27T17:04:29.391Z,100219.13
2018-06-27T17:06:05.110Z,100215.25
2018-06-27T17:07:40.669Z,100219.13
2018-06-27T17:09:18.901Z,100219.41
2018-06-27T17:10:58.553Z,100219.50
2018-06-27T17:12:39.314Z,100215.57
2018-06-27T17:14:16.887Z,100216.06
2018-06-27T17:15:55.260Z,100222.99
2018-06-27T17:17:33.599Z,100215.29
2018-06-27T17:19:10.526Z,100221.64
2018-06-27T17:20:49.813Z,100216.31
2018-06-27T17:22:27.158Z,100218.33
2018-06-27T17:24:10.010Z,100215.84
2018-06-27T17:25:48.237Z,100215.53
2018-06-27T17:27:24.764Z,100214.68
2018-06-27T17:29:01.740Z,100218.38
2018-06-27T17:30:40.588Z,100215.88
2018-06-27T17:32:18.227Z,100214.51
2018-06-27T17:33:55.241Z,100213.18
2018-06-27T17:35:32.894Z,100212.86
2018-06-27T17:37:09.546Z,100218.55
2018-06-27T17:38:45.174Z,100214.34
2018-06-27T17:40:20.765Z,100214.68
2018-06-27T17:41:57.361Z,100209.19
2018-06-27T17:43:33.035Z,100217.38
2018-06-27T17:45:08.656Z,100222.22
2018-06-27T17:46:45.623Z,100217.38
2018-06-27T17:48:21.521Z,100220.88
2018-06-27T17:49:57.433Z,100217.38
2018-06-27T17:51:33.138Z,100223.91
2018-06-27T17:53:09.283Z,100231.77
2018-06-27T17:54:44.943Z,100234.09
2018-06-27T17:56:20.608Z,100224.56
2018-06-27T17:57:56.244Z,100226.23
2018-06-27T17:59:33.059Z,100223.57
2018-06-27T18:01:09.197Z,100223.21
2018-06-27T18:02:45.248Z,100223.21
2018-06-27T18:04:21.841Z,100227.90
2018-06-27T18:05:57.542Z,100227.25
2018-06-27T18:07:33.202Z,100227.41
2018-06-27T18:09:09.892Z,100167.48
2018-06-27T18:10:45.925Z,100236.25
2018-06-27T18:12:21.838Z,100235.91
2018-06-27T18:13:57.509Z,100238.77
2018-06-27T18:15:38.928Z,100238.59
2018-06-27T18:17:15.811Z,100240.42
2018-06-27T18:18:51.895Z,100238.59